Parkhill, Pennsylvania
Current Conditions -  °F | °C
As of 4:54 PM on Saturday 20 Dec 2014 (Local Time) from KJST Reporting Station
Clear Clear  
Wind Chill: 19°   Ceiling: Unl
Heat Index: 25°   Visibility: 10mi
Dew Point: 18°   Wind: 5mph
Humidity: 75%   Direction: 290°WNW
Pressure: 30.15"   Gusts: NA
Location:  40.36°N, 78.87°W
Report Text: KJST 202154Z AUTO 29004KT 10SM CLR M04/M08 A3015 RMK AO2 SLP245 T10391078
Loading
Personal Weather Stations






























Interactive Weather Map New forecast layout! Learn more

10-Day Weather Forecast

Advertisements
Track Severe Weather on mobile